Time;durP1;ratioP1;P1;durP2;ratioP2;P2;SDS_P1;SDS_P2;PMS_P1;PMS_P2;Temp;Humidity;BMP_temperature;BMP_pressure;BME280_temperature;BME280_humidity;BME280_pressure;Samples;Min_cycle;Max_cycle;Signal;HPM_P1;HPM_P2
2022/03/18 00:00:28;;;;;;;27.83;13.75;;;;;;;4.96;78.86;103350.06;5087672;28;20040;-61
2022/03/18 00:02:55;;;;;;;29.42;13.35;;;;;;;4.97;79.34;103352.63;5089084;28;20060;-61
2022/03/18 00:05:24;;;;;;;29.02;13.40;;;;;;;4.87;79.31;103353.84;5086886;28;20067;-61
2022/03/18 00:07:52;;;;;;;31.13;14.48;;;;;;;4.89;79.39;103348.53;5089474;28;20048;-61
2022/03/18 00:10:19;;;;;;;26.05;13.57;;;;;;;4.95;78.98;103350.97;5088977;28;20060;-61
2022/03/18 00:12:48;;;;;;;32.40;14.27;;;;;;;4.94;79.17;103362.41;5084533;28;20036;-61
2022/03/18 00:15:15;;;;;;;28.73;14.73;;;;;;;4.91;79.51;103354.59;5075428;28;20109;-61
2022/03/18 00:17:42;;;;;;;32.58;14.35;;;;;;;4.93;79.95;103352.78;5075671;28;20048;-61
2022/03/18 00:20:11;;;;;;;33.65;14.45;;;;;;;4.89;79.97;103356.44;5075630;28;20066;-61
2022/03/18 00:22:40;;;;;;;29.92;14.52;;;;;;;4.88;79.46;103352.94;5075227;28;20037;-61
2022/03/18 00:25:09;;;;;;;27.42;13.90;;;;;;;4.86;79.83;103354.78;5075174;28;20086;-61
2022/03/18 00:27:38;;;;;;;39.53;14.82;;;;;;;4.82;79.70;103355.81;5075244;28;20093;-61
2022/03/18 00:30:06;;;;;;;30.40;13.45;;;;;;;4.76;80.00;103363.88;5075051;28;20117;-61
2022/03/18 00:32:33;;;;;;;35.38;14.63;;;;;;;4.69;80.07;103365.84;5074031;28;20440;-61
2022/03/18 00:35:00;;;;;;;33.15;14.00;;;;;;;4.69;80.14;103363.22;5075355;28;20062;-61
2022/03/18 00:37:27;;;;;;;35.80;14.70;;;;;;;4.58;80.76;103360.09;5075190;28;20044;-61
2022/03/18 00:39:54;;;;;;;27.75;13.73;;;;;;;4.64;80.49;103359.03;5073840;28;20402;-61
2022/03/18 00:42:21;;;;;;;36.78;14.82;;;;;;;4.63;80.66;103363.44;5075023;28;20041;-61
2022/03/18 00:44:48;;;;;;;29.83;14.38;;;;;;;4.61;80.74;103354.75;5075070;28;20378;-61
2022/03/18 00:52:48;;;;;;;30.33;14.05;;;;;;;4.64;80.90;103366.91;5073808;28;20056;-61
2022/03/18 00:55:15;;;;;;;30.52;13.73;;;;;;;4.45;80.38;103366.69;5073192;28;20071;-61
2022/03/18 00:57:41;;;;;;;31.38;14.27;;;;;;;4.36;81.35;103371.31;5074565;28;20048;-61
2022/03/18 01:00:09;;;;;;;34.63;14.85;;;;;;;4.33;81.46;103381.94;5074983;28;20044;-61
2022/03/18 01:02:36;;;;;;;35.13;14.35;;;;;;;4.21;82.09;103392.84;5070782;28;20045;-61
2022/03/18 01:05:03;;;;;;;28.20;13.15;;;;;;;4.07;82.39;103387.16;5073393;28;20037;-61
2022/03/18 01:07:30;;;;;;;30.00;14.57;;;;;;;4.11;82.60;103387.00;5073388;28;20485;-61
2022/03/18 01:09:58;;;;;;;29.90;13.30;;;;;;;4.14;82.28;103392.16;5073197;28;20047;-61
2022/03/18 01:12:26;;;;;;;33.13;14.65;;;;;;;4.18;82.22;103393.81;5056620;28;20043;-61
2022/03/18 01:14:53;;;;;;;33.15;13.88;;;;;;;4.21;82.21;103398.94;5073324;28;20110;-61
2022/03/18 01:17:20;;;;;;;34.15;14.57;;;;;;;4.20;82.48;103399.88;5073151;28;20048;-61
2022/03/18 01:19:46;;;;;;;32.80;14.27;;;;;;;4.09;82.72;103399.31;5056894;28;20048;-61
2022/03/18 01:22:13;;;;;;;30.35;15.15;;;;;;;3.99;83.27;103398.75;5073260;28;20036;-61
2022/03/18 01:24:40;;;;;;;33.75;15.05;;;;;;;4.12;82.87;103396.59;5073062;28;20048;-61
2022/03/18 01:27:07;;;;;;;31.90;14.35;;;;;;;4.06;83.06;103393.28;5073788;28;20441;-61
2022/03/18 01:29:34;;;;;;;30.23;14.73;;;;;;;4.07;83.22;103393.25;5073170;28;20052;-61
2022/03/18 01:32:01;;;;;;;32.78;14.07;;;;;;;4.14;82.90;103391.31;5074345;28;20519;-61
2022/03/18 01:34:27;;;;;;;36.58;14.90;;;;;;;4.10;83.23;103387.91;5070817;28;20497;-61
2022/03/18 01:36:54;;;;;;;30.45;15.10;;;;;;;4.12;82.83;103391.34;5072935;28;20046;-61
2022/03/18 01:39:22;;;;;;;32.72;15.55;;;;;;;3.99;83.25;103392.63;5073577;28;20037;-61
2022/03/18 01:41:51;;;;;;;41.25;17.48;;;;;;;3.96;83.85;103396.19;5074218;28;20148;-61
2022/03/18 01:44:19;;;;;;;28.00;15.77;;;;;;;3.96;83.77;103395.34;5072563;28;20036;-61
2022/03/18 01:46:46;;;;;;;32.95;17.33;;;;;;;3.89;84.01;103402.53;5072621;28;20048;-61
2022/03/18 01:49:13;;;;;;;31.95;15.88;;;;;;;3.92;84.06;103404.22;5072749;28;20420;-62
2022/03/18 01:51:41;;;;;;;30.30;16.45;;;;;;;3.94;83.69;103400.63;5073744;28;20435;-61
2022/03/18 01:56:55;;;;;;;30.88;15.35;;;;;;;3.98;83.72;103406.66;5073309;28;20060;-61
2022/03/18 01:59:22;;;;;;;32.22;15.77;;;;;;;3.89;83.27;103407.78;5073586;28;20041;-61
2022/03/18 02:01:50;;;;;;;32.10;15.98;;;;;;;3.94;83.52;103415.53;5073105;28;20065;-61
2022/03/18 02:04:17;;;;;;;32.78;15.73;;;;;;;3.95;83.53;103414.66;5071797;28;20075;-61
2022/03/18 02:06:44;;;;;;;40.67;16.55;;;;;;;3.80;83.66;103418.56;5073293;28;20051;-61
2022/03/18 02:09:11;;;;;;;30.55;15.05;;;;;;;3.69;83.69;103415.41;5055629;28;20463;-61
2022/03/18 02:11:39;;;;;;;31.27;16.13;;;;;;;3.73;84.14;103420.53;5072082;28;20401;-61
2022/03/18 02:14:06;;;;;;;33.25;15.23;;;;;;;3.78;84.07;103428.25;5073541;28;20044;-61
2022/03/18 02:16:33;;;;;;;31.85;14.95;;;;;;;3.72;84.20;103426.66;5072932;28;20102;-61
2022/03/18 02:19:00;;;;;;;35.38;15.73;;;;;;;3.59;84.53;103426.16;5073237;28;20040;-61
2022/03/18 02:21:28;;;;;;;40.90;15.43;;;;;;;3.59;84.60;103435.81;5073164;28;20044;-61
2022/03/18 02:23:56;;;;;;;32.95;14.73;;;;;;;3.62;83.93;103438.31;5071676;28;20523;-61
2022/03/18 02:26:23;;;;;;;28.45;13.95;;;;;;;3.50;84.66;103442.16;5072942;28;20056;-61
2022/03/18 02:28:51;;;;;;;36.33;14.95;;;;;;;3.40;84.84;103444.19;5073090;28;20499;-61
2022/03/18 02:31:18;;;;;;;34.00;14.93;;;;;;;3.42;84.92;103454.63;5072096;28;20044;-61
2022/03/18 02:33:45;;;;;;;31.63;14.63;;;;;;;3.55;84.72;103453.41;5071135;28;20056;-61
2022/03/18 02:36:12;;;;;;;31.65;14.40;;;;;;;3.46;84.39;103454.50;5072706;28;20057;-61
2022/03/18 02:38:38;;;;;;;29.98;13.73;;;;;;;3.50;84.00;103451.81;5071764;28;20803;-61
2022/03/18 02:41:06;;;;;;;26.02;13.63;;;;;;;3.41;84.42;103458.16;5073023;28;20045;-61
2022/03/18 02:43:33;;;;;;;26.23;12.63;;;;;;;3.39;84.62;103458.19;5072931;28;20496;-61
2022/03/18 02:45:59;;;;;;;35.72;14.52;;;;;;;3.46;84.59;103462.38;5073008;28;20493;-61
2022/03/18 02:48:26;;;;;;;26.45;13.00;;;;;;;3.52;84.47;103458.72;5072682;28;20040;-61
2022/03/18 02:50:53;;;;;;;31.67;14.27;;;;;;;3.52;84.14;103463.13;5073053;28;20076;-61
2022/03/18 02:53:20;;;;;;;34.25;13.07;;;;;;;3.56;84.33;103470.00;5072960;28;20446;-61
2022/03/18 02:55:47;;;;;;;34.05;14.60;;;;;;;3.59;84.32;103472.56;5071443;28;20068;-61
2022/03/18 02:58:14;;;;;;;30.02;13.10;;;;;;;3.50;83.86;103470.19;5071593;28;20048;-61
2022/03/18 03:00:41;;;;;;;30.75;12.32;;;;;;;3.53;84.56;103475.31;5072392;28;20451;-61
2022/03/18 03:03:07;;;;;;;25.88;12.07;;;;;;;3.59;84.25;103473.41;5072532;28;20393;-61
2022/03/18 03:08:21;;;;;;;27.23;12.45;;;;;;;3.76;83.77;103479.97;5070524;28;20041;-61
2022/03/18 03:10:48;;;;;;;23.73;11.80;;;;;;;3.78;83.02;103481.66;5072418;28;20443;-61
2022/03/18 03:13:15;;;;;;;27.73;12.18;;;;;;;3.76;83.26;103483.44;5072685;28;20045;-61
2022/03/18 03:15:42;;;;;;;33.40;12.90;;;;;;;3.80;82.93;103486.84;5072517;28;20041;-61
2022/03/18 03:18:08;;;;;;;27.23;12.60;;;;;;;3.78;82.68;103476.41;5072541;28;20041;-61
2022/03/18 03:20:35;;;;;;;27.70;12.85;;;;;;;3.83;82.86;103485.00;5072297;28;20493;-61
2022/03/18 03:23:02;;;;;;;36.10;12.63;;;;;;;3.80;82.89;103487.72;5054781;28;20036;-61
2022/03/18 03:25:28;;;;;;;25.13;11.88;;;;;;;3.77;82.19;103484.31;5072208;28;20094;-61
2022/03/18 03:27:55;;;;;;;27.73;12.43;;;;;;;3.79;82.14;103483.38;5072461;28;20052;-61
2022/03/18 03:30:23;;;;;;;30.52;11.75;;;;;;;3.77;82.33;103486.94;5072317;28;20123;-61
2022/03/18 03:32:50;;;;;;;28.30;12.23;;;;;;;3.69;82.86;103488.91;5072670;28;20045;-61
2022/03/18 03:35:17;;;;;;;28.10;12.70;;;;;;;3.71;82.68;103494.97;5070312;28;20044;-61
2022/03/18 03:37:45;;;;;;;25.15;11.05;;;;;;;3.66;82.25;103497.75;5072502;28;20127;-61
2022/03/18 03:40:13;;;;;;;23.08;11.23;;;;;;;3.70;82.72;103498.53;5071923;28;20128;-61
2022/03/18 03:42:41;;;;;;;28.17;11.77;;;;;;;3.72;82.51;103499.34;5072457;28;20128;-61
2022/03/18 03:45:11;;;;;;;26.35;11.82;;;;;;;3.73;82.81;103496.69;5072176;28;20045;-61
2022/03/18 03:47:38;;;;;;;21.98;11.02;;;;;;;3.76;82.40;103507.06;5072756;28;20059;-61
2022/03/18 03:50:07;;;;;;;22.75;11.02;;;;;;;3.75;82.27;103500.13;5074921;28;20040;-61
2022/03/18 03:52:35;;;;;;;24.02;10.60;;;;;;;3.80;81.88;103502.59;5076199;28;20036;-61
2022/03/18 03:55:03;;;;;;;21.55;10.25;;;;;;;3.74;81.91;103498.38;5074141;28;20551;-61
2022/03/18 03:57:30;;;;;;;20.83;10.90;;;;;;;3.69;82.43;103505.50;5076213;28;20047;-61
2022/03/18 03:59:57;;;;;;;25.50;9.95;;;;;;;3.68;82.43;103511.69;5054574;28;20448;-61
2022/03/18 04:02:27;;;;;;;22.95;10.20;;;;;;;3.64;82.07;103502.19;5037639;28;20053;-61
2022/03/18 04:04:53;;;;;;;26.27;10.85;;;;;;;3.62;81.92;103502.22;5055996;28;20136;-61
2022/03/18 04:07:20;;;;;;;23.13;10.30;;;;;;;3.59;82.06;103507.53;5052555;28;20068;-61
2022/03/18 04:09:49;;;;;;;26.08;9.73;;;;;;;3.47;82.21;103513.09;5055953;28;20037;-61
2022/03/18 04:12:15;;;;;;;21.88;10.25;;;;;;;3.08;83.22;103523.72;5074635;28;20499;-61
2022/03/18 04:14:42;;;;;;;24.40;10.90;;;;;;;3.15;83.68;103522.66;5075590;28;20127;-61
2022/03/18 04:17:09;;;;;;;26.33;12.02;;;;;;;3.11;82.95;103525.38;5107822;28;20124;-61
2022/03/18 04:19:35;;;;;;;25.65;10.85;;;;;;;3.06;82.68;103530.75;5075382;28;20041;-61
2022/03/18 04:22:02;;;;;;;23.02;9.80;;;;;;;3.14;82.41;103523.56;5075225;28;20044;-61
2022/03/18 04:24:29;;;;;;;31.92;10.52;;;;;;;3.15;82.33;103529.69;5075203;28;20078;-61
2022/03/18 04:26:56;;;;;;;24.35;9.65;;;;;;;3.18;82.04;103527.81;5074456;28;20037;-61
2022/03/18 04:29:23;;;;;;;25.55;10.25;;;;;;;3.18;82.18;103526.97;5073814;28;20056;-61
2022/03/18 04:31:51;;;;;;;20.08;10.55;;;;;;;3.10;82.15;103524.53;5075158;28;20094;-61
2022/03/18 04:34:18;;;;;;;23.48;9.25;;;;;;;3.03;82.04;103534.31;5071998;28;20078;-61
2022/03/18 04:36:45;;;;;;;24.95;9.85;;;;;;;3.06;81.64;103534.22;5075048;28;20492;-61
2022/03/18 04:39:12;;;;;;;27.00;9.85;;;;;;;2.99;82.08;103537.06;5075010;28;20489;-61
2022/03/18 04:41:38;;;;;;;26.25;10.07;;;;;;;3.00;81.76;103534.41;5037519;28;20041;-61
2022/03/18 04:44:05;;;;;;;21.80;9.93;;;;;;;2.99;82.22;103540.53;5055684;28;20596;-61
2022/03/18 04:46:32;;;;;;;28.00;11.23;;;;;;;2.99;82.44;103534.44;5057236;28;20048;-61
2022/03/18 04:48:59;;;;;;;25.80;10.40;;;;;;;2.83;82.72;103545.25;5074594;28;20439;-60
2022/03/18 04:51:26;;;;;;;21.95;9.90;;;;;;;2.55;83.63;103541.53;5073677;28;20102;-61
2022/03/18 04:53:53;;;;;;;27.05;10.35;;;;;;;2.65;83.12;103533.41;5073107;28;20559;-61
2022/03/18 04:59:06;;;;;;;27.88;10.57;;;;;;;2.46;83.39;103550.47;5074353;28;20043;-60
2022/03/18 05:01:33;;;;;;;25.27;11.02;;;;;;;2.39;84.18;103551.50;5073399;28;20044;-60
2022/03/18 05:04:00;;;;;;;26.63;11.07;;;;;;;2.38;84.07;103555.84;5073172;28;20487;-60
2022/03/18 05:06:27;;;;;;;31.65;12.10;;;;;;;2.35;84.19;103555.03;5072235;28;20445;-61
2022/03/18 05:08:53;;;;;;;25.85;10.48;;;;;;;2.40;83.94;103566.28;5074174;28;20044;-61
2022/03/18 05:11:20;;;;;;;27.77;12.57;;;;;;;2.37;83.31;103571.63;5073245;28;20086;-61
2022/03/18 05:13:47;;;;;;;31.77;12.20;;;;;;;2.33;83.44;103569.94;5073947;28;20032;-61
2022/03/18 05:16:15;;;;;;;35.78;13.00;;;;;;;2.22;84.79;103576.28;5072827;28;20161;-61
2022/03/18 05:18:42;;;;;;;33.03;12.75;;;;;;;2.22;84.70;103578.00;5073021;28;20056;-61
2022/03/18 05:21:08;;;;;;;29.02;11.90;;;;;;;2.33;84.49;103590.91;5072698;28;20450;-61
2022/03/18 05:23:35;;;;;;;30.88;11.98;;;;;;;2.30;84.46;103602.31;5072860;28;20455;-61
2022/03/18 05:26:02;;;;;;;28.70;13.15;;;;;;;2.34;84.27;103601.34;5069904;28;20381;-61
2022/03/18 05:28:30;;;;;;;29.42;12.00;;;;;;;2.38;84.24;103599.53;5053891;28;20116;-61
2022/03/18 05:30:58;;;;;;;30.65;12.00;;;;;;;2.41;83.90;103608.19;5053904;28;20048;-61
2022/03/18 05:33:25;;;;;;;33.38;12.38;;;;;;;2.34;84.40;103609.22;5055834;28;20037;-61
2022/03/18 05:35:52;;;;;;;33.80;13.20;;;;;;;2.40;84.07;103606.50;5073948;28;20048;-61
2022/03/18 05:38:19;;;;;;;33.38;12.95;;;;;;;2.35;84.33;103613.56;5070793;28;20036;-61
2022/03/18 05:40:46;;;;;;;31.80;12.15;;;;;;;2.23;84.87;103617.28;5073313;28;20036;-61
2022/03/18 05:43:13;;;;;;;30.17;12.18;;;;;;;2.25;84.95;103632.97;5073780;28;20037;-61
2022/03/18 05:45:39;;;;;;;33.63;12.77;;;;;;;2.23;85.63;103635.59;5073480;28;20502;-60
2022/03/18 05:48:07;;;;;;;27.75;13.32;;;;;;;2.21;86.59;103644.41;5074026;28;20135;-60
2022/03/18 05:50:34;;;;;;;26.98;13.38;;;;;;;2.23;86.94;103646.09;5073583;28;20485;-61
2022/03/18 05:53:02;;;;;;;39.60;14.00;;;;;;;2.22;85.78;103646.13;5056086;28;20044;-61
2022/03/18 05:56:52;;;;;;;27.70;12.82;;;;;;;2.28;85.58;103649.50;5055058;28;20063;-61
2022/03/18 05:58:15;;;;;;;34.28;12.93;;;;;;;2.19;86.46;103651.44;5073602;28;20523;-60
2022/03/18 06:00:43;;;;;;;38.72;14.63;;;;;;;2.28;85.83;103665.22;5072663;28;20082;-61
2022/03/18 06:03:12;;;;;;;34.72;14.50;;;;;;;2.37;86.10;103661.56;5072141;28;20041;-61
2022/03/18 06:05:40;;;;;;;35.13;12.68;;;;;;;2.36;86.04;103666.81;5068805;28;20373;-61
2022/03/18 06:13:40;;;;;;;23.65;10.25;;;;;;;2.60;85.47;103655.88;5072288;28;20036;-61
2022/03/18 06:16:07;;;;;;;31.65;10.63;;;;;;;2.75;85.48;103661.66;5072596;28;20505;-61
2022/03/18 06:18:38;;;;;;;29.52;11.18;;;;;;;2.81;84.49;103666.81;5071793;28;20527;-60
2022/03/18 06:21:06;;;;;;;29.30;11.90;;;;;;;2.79;84.57;103671.22;5073184;28;20053;-61
2022/03/18 06:23:34;;;;;;;32.83;12.18;;;;;;;2.75;84.51;103672.16;5071706;28;20032;-61
2022/03/18 06:26:02;;;;;;;24.58;10.93;;;;;;;2.72;85.05;103680.97;5072396;28;20036;-61
2022/03/18 06:28:31;;;;;;;24.70;11.07;;;;;;;2.87;84.83;103691.16;5071666;28;20048;-60
2022/03/18 06:30:57;;;;;;;53.40;11.68;;;;;;;3.01;84.57;103698.72;5073162;28;20078;-61
2022/03/18 06:33:24;;;;;;;27.20;11.23;;;;;;;3.11;83.94;103701.13;5070820;28;21154;-61
2022/03/18 06:35:51;;;;;;;27.75;10.38;;;;;;;3.25;82.78;103699.94;5071405;28;20041;-61
2022/03/18 06:38:18;;;;;;;25.00;10.43;;;;;;;3.38;82.90;103691.78;5072986;28;20044;-60
2022/03/18 06:40:45;;;;;;;26.65;10.00;;;;;;;3.49;82.60;103684.53;5071144;28;20049;-61
2022/03/18 06:43:12;;;;;;;25.23;10.40;;;;;;;3.57;81.93;103685.22;5072787;28;20497;-61
2022/03/18 06:45:40;;;;;;;25.48;10.57;;;;;;;3.65;81.88;103682.41;5072738;28;20056;-61
2022/03/18 06:48:08;;;;;;;24.40;9.95;;;;;;;3.68;81.86;103699.88;5072653;28;20101;-61
2022/03/18 06:50:34;;;;;;;26.20;10.55;;;;;;;3.68;81.84;103702.50;5072051;28;20037;-61
2022/03/18 06:53:01;;;;;;;26.15;11.20;;;;;;;3.72;81.69;103710.25;5072255;28;20533;-60
2022/03/18 06:55:28;;;;;;;30.55;10.85;;;;;;;3.77;81.66;103704.91;5070978;28;20044;-60
2022/03/18 06:57:54;;;;;;;31.02;10.73;;;;;;;3.88;81.57;103709.88;5054749;28;20114;-61
2022/03/18 07:00:21;;;;;;;26.92;10.13;;;;;;;3.91;80.92;103709.78;5071038;28;20521;-60
2022/03/18 07:02:48;;;;;;;27.50;11.70;;;;;;;3.98;81.43;103717.50;5072243;28;20059;-60
2022/03/18 07:05:15;;;;;;;22.17;10.20;;;;;;;4.02;80.79;103711.25;5038220;28;20058;-60
2022/03/18 07:07:41;;;;;;;25.30;10.52;;;;;;;4.15;80.56;103719.69;5069463;28;20052;-60
2022/03/18 07:10:09;;;;;;;31.15;10.38;;;;;;;4.11;79.71;103718.06;5072432;28;20508;-60
2022/03/18 07:12:36;;;;;;;29.80;10.02;;;;;;;4.20;79.06;103730.97;5071219;28;20412;-60
2022/03/18 07:15:02;;;;;;;32.92;9.77;;;;;;;4.31;78.39;103722.78;5070490;28;20048;-60
2022/03/18 07:18:01;;;;;;;27.50;10.65;;;;;;;4.36;78.23;103731.41;5071190;28;20037;-60
2022/03/18 07:20:18;;;;;;;32.10;10.93;;;;;;;4.41;77.49;103726.03;5071034;28;20512;-60
2022/03/18 07:22:44;;;;;;;28.70;9.35;;;;;;;4.46;77.23;103718.00;5072755;28;20077;-60
2022/03/18 07:25:11;;;;;;;27.10;10.40;;;;;;;4.54;77.37;103718.69;5075185;28;20055;-60
2022/03/18 07:27:38;;;;;;;37.65;10.10;;;;;;;4.64;77.86;103716.66;5076481;28;20040;-60
2022/03/18 07:30:05;;;;;;;33.28;10.75;;;;;;;4.70;77.46;103717.34;5075049;28;20048;-60
2022/03/18 07:32:32;;;;;;;30.60;9.75;;;;;;;4.70;77.04;103712.09;5058275;28;20074;-60
2022/03/18 07:34:58;;;;;;;32.25;9.63;;;;;;;4.67;77.77;103709.53;5072579;28;20064;-59
2022/03/18 07:37:26;;;;;;;25.60;9.88;;;;;;;4.80;77.28;103710.94;5076369;28;20076;-59
2022/03/18 07:39:53;;;;;;;29.83;10.02;;;;;;;4.97;77.00;103713.06;5074712;28;20040;-60
2022/03/18 07:42:20;;;;;;;31.17;10.75;;;;;;;5.05;76.46;103706.72;5074241;28;20052;-61
2022/03/18 07:44:46;;;;;;;30.52;9.75;;;;;;;5.13;75.71;103713.47;5075374;28;20056;-61
2022/03/18 07:47:13;;;;;;;22.83;9.07;;;;;;;5.33;74.66;103718.16;5050145;28;20070;-61
2022/03/18 07:49:40;;;;;;;30.48;7.85;;;;;;;5.53;74.19;103720.16;5057623;28;20094;-61
2022/03/18 07:52:07;;;;;;;21.20;7.10;;;;;;;5.67;72.64;103722.34;5070100;28;20467;-61
2022/03/18 07:54:34;;;;;;;20.35;6.40;;;;;;;5.76;70.92;103722.03;5075419;28;20044;-61
2022/03/18 07:57:00;;;;;;;21.55;6.53;;;;;;;5.99;71.32;103728.38;5074961;28;20562;-61
2022/03/18 07:59:27;;;;;;;29.60;8.00;;;;;;;6.09;70.19;103721.91;5075336;28;20650;-61
2022/03/18 08:01:54;;;;;;;30.17;7.82;;;;;;;6.21;70.07;103720.59;5074902;28;20071;-61
2022/03/18 08:04:20;;;;;;;17.40;5.90;;;;;;;6.29;69.62;103717.69;5073721;28;20120;-61
2022/03/18 08:06:47;;;;;;;28.13;6.88;;;;;;;6.53;68.87;103708.03;5073314;28;20044;-61
2022/03/18 08:09:14;;;;;;;20.77;6.82;;;;;;;6.63;68.41;103714.72;5074836;28;20051;-61
2022/03/18 08:11:42;;;;;;;29.85;6.25;;;;;;;6.78;67.74;103717.72;5078507;28;20496;-61
2022/03/18 08:14:09;;;;;;;20.02;6.22;;;;;;;6.83;66.67;103724.53;5075634;28;20550;-61
2022/03/18 08:16:35;;;;;;;28.48;7.38;;;;;;;6.92;65.95;103713.63;5074141;28;20048;-61
2022/03/18 08:19:02;;;;;;;18.67;6.32;;;;;;;6.87;65.88;103723.50;5077949;28;20048;-61
2022/03/18 08:21:32;;;;;;;16.17;6.03;;;;;;;6.99;65.26;103721.34;5074496;28;20045;-60
2022/03/18 08:23:59;;;;;;;29.98;7.22;;;;;;;7.20;65.79;103731.06;5075003;28;20043;-60
2022/03/18 08:26:27;;;;;;;20.42;6.13;;;;;;;7.30;65.56;103740.38;5074776;28;20489;-60
2022/03/18 08:28:53;;;;;;;23.38;6.00;;;;;;;7.55;64.67;103743.81;5075285;28;20460;-60
2022/03/18 08:31:20;;;;;;;29.73;6.35;;;;;;;7.61;64.63;103743.59;5074987;28;20052;-60
2022/03/18 08:33:47;;;;;;;26.77;6.15;;;;;;;7.78;64.36;103745.53;5074755;28;20045;-60
2022/03/18 08:36:16;;;;;;;18.90;5.90;;;;;;;7.94;64.03;103751.06;5068010;28;20055;-59
2022/03/18 08:38:43;;;;;;;14.48;5.07;;;;;;;7.82;63.05;103755.94;5072751;28;20047;-59
2022/03/18 08:41:10;;;;;;;21.00;5.38;;;;;;;7.90;61.45;103757.41;5073427;28;20051;-59
2022/03/18 08:43:36;;;;;;;27.33;6.80;;;;;;;7.97;62.09;103764.19;5073669;28;20384;-61
2022/03/18 08:46:03;;;;;;;31.13;6.57;;;;;;;8.43;59.17;103757.81;5074433;28;20083;-60
2022/03/18 08:48:30;;;;;;;25.63;6.10;;;;;;;8.24;60.48;103763.00;5073295;28;20059;-60
2022/03/18 08:50:56;;;;;;;22.60;5.82;;;;;;;7.99;60.60;103770.25;5073029;28;20048;-60
2022/03/18 08:53:24;;;;;;;23.30;5.97;;;;;;;8.36;60.54;103769.56;5080123;28;20079;-60
2022/03/18 08:55:51;;;;;;;19.90;5.93;;;;;;;8.48;60.72;103773.50;5066107;28;20043;-60
2022/03/18 08:58:20;;;;;;;29.42;5.43;;;;;;;8.62;58.54;103772.88;5072935;28;20048;-60
2022/03/18 09:00:48;;;;;;;18.27;4.82;;;;;;;8.92;57.23;103777.75;5075374;28;20056;-60
2022/03/18 09:03:15;;;;;;;22.48;4.97;;;;;;;9.13;57.61;103779.44;5071671;28;20053;-60
2022/03/18 09:05:42;;;;;;;15.73;3.95;;;;;;;9.06;55.45;103775.34;5073388;28;20551;-61
2022/03/18 09:08:09;;;;;;;14.93;3.63;;;;;;;9.23;55.05;103780.72;5071983;28;20048;-60
2022/03/18 09:10:36;;;;;;;15.35;3.53;;;;;;;9.50;53.68;103782.16;5072604;28;20115;-60
2022/03/18 09:13:07;;;;;;;14.52;3.40;;;;;;;9.89;52.15;103791.75;5072933;28;20127;-60
2022/03/18 09:15:33;;;;;;;13.80;2.97;;;;;;;10.24;50.29;103786.50;5073814;28;20033;-60
2022/03/18 09:18:00;;;;;;;16.83;4.53;;;;;;;10.65;49.73;103803.00;5073877;28;20040;-60
2022/03/18 09:20:27;;;;;;;21.90;4.22;;;;;;;11.00;49.39;103786.97;5071594;28;20121;-61
2022/03/18 09:22:54;;;;;;;14.25;3.63;;;;;;;11.36;46.70;103798.34;5074215;28;20044;-61
2022/03/18 09:25:21;;;;;;;17.25;3.35;;;;;;;12.53;44.30;103797.81;5072205;28;20094;-61
2022/03/18 09:27:48;;;;;;;10.23;3.47;;;;;;;13.00;42.63;103812.72;5068691;28;20044;-61
2022/03/18 09:30:19;;;;;;;20.75;3.50;;;;;;;13.60;40.82;103821.44;5072226;28;20052;-61
2022/03/18 09:32:46;;;;;;;15.20;3.92;;;;;;;14.85;37.95;103827.34;5073104;28;20040;-61
2022/03/18 09:35:15;;;;;;;14.75;2.92;;;;;;;15.55;36.48;103817.91;5052080;28;20071;-61
2022/03/18 09:37:42;;;;;;;11.27;3.30;;;;;;;15.70;36.46;103821.28;5053680;28;20048;-62
2022/03/18 09:40:09;;;;;;;10.85;3.50;;;;;;;17.46;33.96;103824.72;5057580;28;20048;-60
2022/03/18 09:42:58;;;;;;;14.23;3.30;;;;;;;17.85;32.84;103830.50;5054830;28;20045;-61
2022/03/18 09:45:30;;;;;;;13.35;3.50;;;;;;;17.51;31.30;103819.81;5051769;28;20041;-61
2022/03/18 09:47:58;;;;;;;9.57;2.80;;;;;;;17.95;30.71;103826.06;5052698;28;20067;-61
2022/03/18 09:50:26;;;;;;;13.25;3.17;;;;;;;17.78;30.76;103834.66;5063528;28;20048;-61
2022/03/18 09:52:53;;;;;;;11.40;3.30;;;;;;;17.29;30.49;103835.97;5072287;28;20106;-61
2022/03/18 09:55:21;;;;;;;11.52;2.97;;;;;;;16.72;31.74;103843.09;5072192;28;20519;-61
2022/03/18 09:57:48;;;;;;;12.65;2.97;;;;;;;18.63;29.21;103832.91;5055650;28;20052;-61
2022/03/18 10:00:15;;;;;;;11.50;3.00;;;;;;;17.38;30.46;103835.22;5073399;28;20496;-61
2022/03/18 10:02:42;;;;;;;10.77;3.17;;;;;;;18.46;29.19;103835.22;5071740;28;20058;-61
2022/03/18 10:05:12;;;;;;;9.07;2.88;;;;;;;19.80;26.68;103839.63;5073307;28;20094;-61
2022/03/18 10:07:39;;;;;;;11.90;3.50;;;;;;;20.01;27.52;103836.81;5071211;28;20448;-61
2022/03/18 10:10:14;;;;;;;11.82;3.13;;;;;;;19.28;27.53;103838.91;5073413;28;20053;-61
2022/03/18 10:12:45;;;;;;;12.18;3.10;;;;;;;20.96;25.62;103839.63;5071943;28;20139;-61
2022/03/18 10:15:15;;;;;;;10.95;3.17;;;;;;;20.94;24.34;103847.00;5073104;28;20057;-61
2022/03/18 10:17:51;;;;;;;11.25;3.17;;;;;;;20.35;25.21;103835.50;5072273;28;20102;-61
2022/03/18 10:20:45;;;;;;;10.90;3.03;;;;;;;20.16;25.52;103839.91;5071864;28;20068;-61
2022/03/18 10:25:55;;;;;;;14.85;3.47;;;;;;;21.15;23.79;103844.06;5110404;27;20380;-61
2022/03/18 10:28:41;;;;;;;13.00;3.42;;;;;;;20.92;23.88;103841.78;5096088;28;20144;-61
2022/03/18 10:31:19;;;;;;;17.30;5.43;;;;;;;20.07;25.87;103832.69;5089272;28;20062;-62
2022/03/18 10:37:15;;;;;;;18.58;5.72;;;;;;;19.52;27.21;103834.03;5113309;28;20067;-62
2022/03/18 10:39:35;;;;;;;13.65;4.32;;;;;;;21.62;25.41;103836.72;5109037;28;20052;-62
2022/03/18 10:42:09;;;;;;;13.73;4.15;;;;;;;21.75;24.26;103830.09;5109187;28;20040;-62
2022/03/18 10:44:54;;;;;;;11.88;3.95;;;;;;;22.33;23.86;103837.72;5112175;28;20066;-62
2022/03/18 10:47:40;;;;;;;15.65;4.30;;;;;;;21.95;23.83;103826.22;5098648;28;20043;-62
2022/03/18 10:50:14;;;;;;;13.23;4.15;;;;;;;21.47;23.16;103840.97;5089637;28;20411;-62
2022/03/18 10:53:01;;;;;;;10.20;3.80;;;;;;;22.00;23.58;103828.47;5108885;28;20124;-62
2022/03/18 10:55:35;;;;;;;11.30;3.38;;;;;;;22.28;22.87;103833.78;5109885;28;20085;-62
2022/03/18 10:58:10;;;;;;;13.80;3.72;;;;;;;21.52;23.46;103826.97;5109131;28;20040;-62
2022/03/18 11:00:40;;;;;;;12.10;3.92;;;;;;;20.25;24.72;103841.75;5108674;28;20456;-62
2022/03/18 11:03:07;;;;;;;13.32;3.75;;;;;;;20.56;25.20;103840.72;5110085;28;20040;-62
2022/03/18 11:05:37;;;;;;;10.18;3.60;;;;;;;19.89;25.96;103838.78;5120626;28;20035;-63
2022/03/18 11:08:07;;;;;;;9.38;3.28;;;;;;;21.15;23.39;103846.78;5097756;28;20075;-63
2022/03/18 11:13:24;;;;;;;15.10;3.35;;;;;;;22.24;21.70;103844.88;5109631;28;20089;-62
2022/03/18 11:15:51;;;;;;;13.98;3.42;;;;;;;20.59;23.53;103848.50;5108681;28;20031;-62
2022/03/18 11:18:19;;;;;;;11.93;3.50;;;;;;;19.34;24.67;103849.16;5109665;28;20408;-62
2022/03/18 11:20:50;;;;;;;11.45;3.40;;;;;;;19.65;24.75;103843.69;5101965;28;20040;-62
2022/03/18 11:23:19;;;;;;;11.05;3.40;;;;;;;20.89;23.31;103847.47;5109395;28;20036;-62
2022/03/18 11:25:52;;;;;;;15.20;3.70;;;;;;;20.79;24.24;103843.94;5108907;28;20090;-62
2022/03/18 11:28:20;;;;;;;9.65;3.38;;;;;;;22.20;22.14;103838.09;5107985;28;20050;-62
2022/03/18 11:31:00;;;;;;;10.90;3.20;;;;;;;21.58;22.83;103835.34;5099829;28;20048;-62
2022/03/18 11:33:27;;;;;;;11.75;3.33;;;;;;;21.37;22.83;103838.25;5094522;28;20044;-62
2022/03/18 11:38:53;;;;;;;9.82;2.70;;;;;;;21.64;21.76;103837.41;5096613;27;20121;-62
2022/03/18 11:41:20;;;;;;;10.70;3.22;;;;;;;20.97;22.07;103834.06;5090098;28;20058;-62
2022/03/18 11:46:26;;;;;;;12.98;3.03;;;;;;;21.21;22.60;103829.97;5110416;27;20137;-64
2022/03/18 11:48:57;;;;;;;11.18;3.33;;;;;;;20.60;23.40;103836.72;5101819;28;20392;-62
2022/03/18 11:51:57;;;;;;;12.70;3.40;;;;;;;22.77;21.71;103829.53;5089774;28;20409;-62
2022/03/18 11:54:26;;;;;;;13.85;2.75;;;;;;;23.50;19.75;103830.03;5089522;28;20072;-63
2022/03/18 11:56:55;;;;;;;8.50;3.00;;;;;;;24.68;18.89;103827.84;5089173;28;20416;-62